• Join FlightAware (Why Join?)
  • Login
  • US Flag 
08:40PM EDT


 

Airport Tracker/Info


-or-


 

Live Flight TrackerFlight Track Log ✈ DAL268 ✈ 13-Aug-2013 ✈ KSFO - KJFK

Flight Track Log - Related Links

Times and Time Zones

All times are in EDT time to prevent confusion due to time zone crossing. See the DAL268 flight status page for this flight to view local times or setup timezone preferences in your user account.

Time Position Orientation Groundspeed Altitude Reporting Facility
EDT Latitude Longitude Course Direction KTS MPH feet Rate Location/Type
02:56PM 37.6160 -122.3750 90° East 140 161  Level FlightAware
02:56PM 37.6243 -122.3690 30° Northeast 174 200 100 1,740 Climbing FlightAware ADS-B
02:56PM 37.6349 -122.3620 28° Northeast 178 205 700 2,160 Climbing FlightAware ADS-B
02:56PM 37.6393 -122.3580 36° Northeast 180 207 900 2,160 Climbing FlightAware ADS-B
02:56PM 37.6420 -122.3550 41° Northeast 181 208 1,100 3,000 Climbing FlightAware ADS-B
02:57PM 37.6471 -122.3490 43° Northeast 186 214 1,500 1,680 Climbing FlightAware ADS-B
02:57PM 37.6600 -122.3320 46° Northeast 204 235 1,900 1,620 Climbing FlightAware ADS-B
02:57PM 37.6720 -122.3170 45° Northeast 224 258 2,500 1,800 Climbing FlightAware ADS-B
02:57PM 37.6841 -122.3020 44° Northeast 240 276 2,900 1,500 Climbing FlightAware ADS-B
02:58PM 37.6972 -122.2850 46° Northeast 263 303 3,300 2,220 Climbing FlightAware ADS-B
02:58PM 37.7178 -122.2580 46° Northeast 268 308 4,400 2,700 Climbing FlightAware ADS-B
02:58PM 37.7319 -122.2400 45° Northeast 273 314 5,100 2,700 Climbing FlightAware ADS-B
02:59PM 37.7577 -122.2080 44° Northeast 279 321 6,400 2,580 Climbing FlightAware ADS-B
02:59PM 37.7722 -122.1890 46° Northeast 282 325 7,000 2,400 Climbing FlightAware ADS-B
02:59PM 37.7873 -122.1700 45° Northeast 286 329 7,700 2,520 Climbing FlightAware ADS-B
03:00PM 37.7966 -122.1580 46° Northeast 289 333 8,100 2,580 Climbing FlightAware ADS-B
03:00PM 37.8029 -122.1510 41° Northeast 291 335 8,400 2,700 Climbing FlightAware ADS-B
03:00PM 37.8193 -122.1340 39° Northeast 293 337 9,100 2,460 Climbing FlightAware ADS-B
03:00PM 37.8385 -122.1160 37° Northeast 297 342 9,800 1,860 Climbing FlightAware ADS-B
03:01PM 37.8736 -122.0830 37° Northeast 321 369 10,600 1,260 Climbing FlightAware ADS-B
03:01PM 37.9122 -122.0480 36° Northeast 353 406 11,100 960 Climbing FlightAware ADS-B
03:02PM 37.9544 -122.0090 36° Northeast 381 438 11,600 1,440 Climbing FlightAware ADS-B
03:02PM 38.0059 -121.9610 36° Northeast 391 450 12,700 1,860 Climbing FlightAware ADS-B
03:03PM 38.0540 -121.9160 36° Northeast 399 459 13,900 1,980 Climbing FlightAware
03:04PM 38.1090 -121.8650 36° Northeast 406 467 15,100 2,040 Climbing FlightAware
03:04PM 38.1570 -121.8200 36° Northeast 412 474 16,200 1,800 Climbing FlightAware
03:05PM 38.2170 -121.7650 36° Northeast 419 482 17,300 1,680 Climbing FlightAware
03:05PM 38.2700 -121.7140 37° Northeast 426 490 18,300 1,680 Climbing FlightAware
03:06PM 38.3270 -121.6610 36° Northeast 435 501 19,300 1,560 Climbing FlightAware
03:06PM 38.3850 -121.6070 36° Northeast 443 510 20,200 1,560 Climbing FlightAware
03:07PM 38.4380 -121.5520 39° Northeast 451 519 21,100 1,620 Climbing FlightAware
03:08PM 38.4900 -121.4740 50° Northeast 456 525 22,100 1,620 Climbing FlightAware
03:08PM 38.5300 -121.4060 53° Northeast 461 531 23,000 1,680 Climbing FlightAware
03:09PM 38.5800 -121.3180 54° Northeast 465 535 24,100 1,680 Climbing FlightAware
03:09PM 38.5957 -121.2910 53° Northeast 457 526 24,400 1,440 Climbing FlightAware ADS-B
03:10PM 38.6640 -121.1730 53° Northeast 472 543 25,700 1,320 Climbing FlightAware
03:11PM 38.7150 -121.0850 53° Northeast 476 548 26,600 1,380 Climbing FlightAware
03:11PM 38.7530 -121.0200 53° Northeast 479 551 27,300 1,320 Climbing FlightAware
03:12PM 38.7990 -120.9390 54° Northeast 484 557 28,000 1,200 Climbing FlightAware
03:12PM 38.8550 -120.8410 54° Northeast 487 560 28,800 1,320 Climbing FlightAware
03:13PM 38.8950 -120.7730 53° Northeast 486 559 29,600 1,320 Climbing FlightAware
03:13PM 38.9450 -120.6860 54° Northeast 488 562 30,300 1,260 Climbing FlightAware
03:14PM 38.9930 -120.6040 53° Northeast 487 560 31,100 1,200 Climbing FlightAware
03:15PM 39.0410 -120.5200 54° Northeast 485 558 31,800 1,200 Climbing FlightAware
03:15PM 39.0830 -120.4480 53° Northeast 485 558 32,500 1,200 Climbing FlightAware
03:16PM 39.1360 -120.3550 54° Northeast 486 559 33,200 1,020 Climbing FlightAware
03:16PM 39.1790 -120.2790 54° Northeast 488 562 33,700 1,080 Climbing FlightAware
03:17PM 39.2390 -120.1740 54° Northeast 486 559 34,600 960 Climbing FlightAware
03:18PM 39.2850 -120.0920 54° Northeast 488 562 35,000 300 Climbing FlightAware
03:18PM 39.3300 -120.0130 54° Northeast 489 563 35,000 420 Level FlightAware
03:19PM 39.3760 -119.9320 54° Northeast 488 562 35,500 840 Climbing FlightAware
03:19PM 39.4240 -119.8470 54° Northeast 488 562 36,000 840 Climbing FlightAware
03:20PM 39.4660 -119.7730 54° Northeast 487 560 36,500 720 Climbing FlightAware
03:21PM 39.5210 -119.6750 54° Northeast 489 563 36,900 360 Climbing FlightAware
03:21PM 39.5650 -119.5960 54° Northeast 492 566 37,000 60 Climbing FlightAware
03:22PM 39.6120 -119.5120 54° Northeast 490 564 37,000  Level FlightAware
03:22PM 39.6490 -119.4450 54° Northeast 490 564 37,000  Level FlightAware
03:23PM 39.6920 -119.3680 54° Northeast 491 565 37,000  Level FlightAware
03:23PM 39.7440 -119.2730 55° Northeast 491 565 37,000  Level FlightAware
03:24PM 39.7900 -119.1910 54° Northeast 491 565 37,000  Level FlightAware
03:25PM 39.8370 -119.1050 55° Northeast 491 565 37,000  Level FlightAware
03:25PM 39.8790 -119.0290 54° Northeast 491 565 37,000  Level FlightAware
03:26PM 39.9210 -118.9520 55° Northeast 491 565 37,000  Level FlightAware
03:26PM 39.9690 -118.8650 54° Northeast 490 564 37,000  Level FlightAware
03:27PM 40.0150 -118.7800 55° Northeast 491 565 37,000  Level FlightAware
03:27PM 40.0640 -118.6910 54° Northeast 492 566 37,000  Level FlightAware
03:28PM 40.1050 -118.6130 55° Northeast 492 566 37,000  Level FlightAware
03:29PM 40.1450 -118.5060 64° Northeast 492 566 37,000  Level FlightAware
03:29PM 40.1700 -118.4180 70° East 491 565 37,000  Level FlightAware
03:30PM 40.1960 -118.3220 70° East 493 567 37,000  Level FlightAware
03:31PM 40.2340 -118.1820 70° East 492 566 37,000  Level FlightAware
03:31PM 40.2720 -118.0430 70° East 492 566 37,000  Level FlightAware
03:32PM 40.2920 -117.9660 71° East 492 566 37,000  Level FlightAware
03:33PM 40.3180 -117.8730 70° East 492 566 37,000  Level FlightAware
03:33PM 40.3420 -117.7870 70° East 492 566 37,000  Level FlightAware
03:34PM 40.3660 -117.7010 70° East 492 566 37,000  Level FlightAware
03:34PM 40.3920 -117.6080 70° East 492 566 37,000  Level FlightAware
03:35PM 40.4160 -117.5220 70° East 492 566 37,000  Level FlightAware
03:36PM 40.4400 -117.4340 70° East 492 566 37,000  Level FlightAware
03:36PM 40.4640 -117.3450 70° East 492 566 37,000  Level FlightAware
03:37PM 40.4880 -117.2590 70° East 492 566 37,000  Level FlightAware
03:37PM 40.5130 -117.1710 69° East 492 566 37,000  Level FlightAware
03:38PM 40.5370 -117.0850 70° East 492 566 37,000  Level FlightAware
03:39PM 40.5600 -116.9990 71° East 492 566 37,000  Level FlightAware
03:39PM 40.5840 -116.9120 70° East 492 566 37,000  Level FlightAware
03:40PM 40.6080 -116.8260 70° East 492 566 37,000  Level FlightAware
03:40PM 40.6320 -116.7400 70° East 492 566 37,000  Level FlightAware
03:41PM 40.6560 -116.6540 70° East 492 566 37,000  Level FlightAware
03:42PM 40.6790 -116.5670 71° East 492 566 37,000  Level FlightAware
03:44PM 40.9369 -115.9730 60° Northeast 498 573 37,000  Level FlightAware ADS-B
03:44PM 40.9723 -115.8800 63° Northeast 498 573 37,000  Level FlightAware ADS-B
03:47PM 41.1470 -115.4160 63° Northeast 497 572 37,000  Level FlightAware
03:48PM 41.1819 -115.3230 63° Northeast 498 573 37,000  Level FlightAware ADS-B
03:48PM 41.2130 -115.2400 64° Northeast 496 571 37,000  Level FlightAware ADS-B
03:49PM 41.2435 -115.1570 64° Northeast 497 572 37,000  Level FlightAware ADS-B
03:49PM 41.2744 -115.0740 64° Northeast 496 571 37,000  Level FlightAware ADS-B
03:50PM 41.3047 -114.9910 64° Northeast 496 571 37,000  Level FlightAware ADS-B
03:50PM 41.3369 -114.9040 64° Northeast 496 571 37,000  Level FlightAware ADS-B
03:51PM 41.3675 -114.8200 64° Northeast 496 571 37,000  Level FlightAware ADS-B
03:51PM 41.4004 -114.7300 64° Northeast 497 572 37,000  Level FlightAware ADS-B
03:52PM 41.4366 -114.6310 64° Northeast 497 572 37,000  Level FlightAware ADS-B
03:53PM 41.4687 -114.5430 64° Northeast 497 572 37,000  Level FlightAware ADS-B
03:53PM 41.4988 -114.4600 64° Northeast 498 573 37,000  Level FlightAware ADS-B
03:54PM 41.5291 -114.3760 64° Northeast 499 574 37,000  Level FlightAware ADS-B
03:54PM 41.5603 -114.2890 64° Northeast 499 574 37,000  Level FlightAware ADS-B
03:55PM 41.5903 -114.2060 64° Northeast 499 574 37,000  Level FlightAware ADS-B
03:55PM 41.6206 -114.1210 64° Northeast 500 575 37,000  Level FlightAware ADS-B
03:56PM 41.6506 -114.0370 64° Northeast 499 574 37,000  Level FlightAware ADS-B
03:56PM 41.6859 -113.9370 65° Northeast 499 574 37,000  Level FlightAware ADS-B
03:57PM 41.7159 -113.8530 64° Northeast 500 575 37,000  Level FlightAware ADS-B
03:57PM 41.7467 -113.7660 65° Northeast 501 577 37,000  Level FlightAware ADS-B
03:58PM 41.7766 -113.6810 65° Northeast 501 577 37,000  Level FlightAware ADS-B
03:58PM 41.8064 -113.5960 65° Northeast 501 577 37,000  Level FlightAware ADS-B
03:59PM 41.8506 -113.4700 65° Northeast 502 578 37,000  Level FlightAware ADS-B
04:00PM 41.9012 -113.3250 65° Northeast 502 578 37,000  Level FlightAware ADS-B
04:00PM 41.9360 -113.2250 65° Northeast 502 578 37,000  Level FlightAware
04:01PM 41.9514 -113.1800 65° Northeast 502 578 37,000  Level FlightAware ADS-B
04:02PM 42.0098 -113.0100 65° Northeast 503 579 37,000  Level FlightAware ADS-B
04:02PM 42.0429 -112.9140 65° Northeast 504 580 37,000  Level FlightAware ADS-B
04:03PM 42.0860 -112.7890 65° Northeast 502 578 37,000  Level FlightAware
04:04PM 42.1180 -112.6930 66° East 502 578 37,000  Level FlightAware
04:04PM 42.1490 -112.6040 65° Northeast 502 578 37,000  Level FlightAware
04:05PM 42.1930 -112.4590 68° East 502 578 37,000  Level FlightAware
04:06PM 42.2020 -112.3480 84° East 502 578 37,000  Level FlightAware
04:06PM 42.2170 -112.2430 79° East 502 578 37,000  Level FlightAware
04:07PM 42.2380 -112.1050 78° East 501 577 37,000  Level FlightAware
04:08PM 42.2530 -112.0060 78° East 501 577 37,000  Level FlightAware
04:08PM 42.2659 -111.9090 80° East 500 575 37,000  Level FlightAware ADS-B
04:09PM 42.2806 -111.8020 79° East 499 574 37,000  Level FlightAware ADS-B
04:09PM 42.3017 -111.6530 79° East 500 575 37,000  Level FlightAware ADS-B
04:10PM 42.3150 -111.5630 79° East 498 573 37,000  Level FlightAware
04:10PM 42.3323 -111.4440 79° East 499 574 37,000  Level FlightAware ADS-B
04:11PM 42.3460 -111.3510 79° East 495 570 37,000  Level FlightAware
04:12PM 42.3600 -111.2520 79° East 495 570 37,000  Level FlightAware
04:12PM 42.3820 -111.0920 79° East 492 566 37,000  Level FlightAware
04:13PM 42.3980 -110.9780 79° East 491 565 37,000  Level FlightAware
04:14PM 42.4120 -110.8790 79° East 491 565 37,000  Level FlightAware
04:14PM 42.4260 -110.7860 78° East 491 565 37,000  Level FlightAware
04:15PM 42.4390 -110.6940 79° East 491 565 37,000  Level FlightAware
04:15PM 42.4520 -110.6010 79° East 491 565 37,000  Level FlightAware
04:16PM 42.4650 -110.5090 79° East 491 565 37,000  Level FlightAware
04:17PM 42.4790 -110.4140 79° East 491 565 37,000  Level FlightAware
04:17PM 42.4920 -110.3210 79° East 491 565 37,000  Level FlightAware
04:18PM 42.5060 -110.2290 78° East 491 565 37,000  Level FlightAware
04:19PM 42.5190 -110.1360 79° East 491 565 37,000  Level FlightAware
04:19PM 42.5320 -110.0430 79° East 491 565 37,000  Level FlightAware
04:20PM 42.5450 -109.9510 79° East 491 565 37,000  Level FlightAware
04:20PM 42.5590 -109.8580 78° East 491 565 37,000  Level FlightAware
04:21PM 42.5720 -109.7660 79° East 491 565 37,000  Level FlightAware
04:22PM 42.5850 -109.6700 80° East 491 565 37,000  Level FlightAware
04:22PM 42.5990 -109.5780 78° East 491 565 37,000  Level FlightAware
04:23PM 42.6120 -109.4850 79° East 491 565 37,000  Level FlightAware
04:24PM 42.9531 -109.2239 79° East 487 560 37,000  Level Salt Lake Center
04:25PM 43.0144 -109.0694 61° Northeast 485 558 37,000  Level Salt Lake Center
04:26PM 43.0742 -108.9172 62° Northeast 477 549 37,000  Level Salt Lake Center
04:27PM 43.1442 -108.7378 62° Northeast 478 550 37,000  Level Salt Lake Center
04:28PM 43.2044 -108.5836 62° Northeast 479 551 37,000  Level Salt Lake Center
04:29PM 43.2736 -108.4025 62° Northeast 480 552 37,000  Level Salt Lake Center
04:30PM 43.3333 -108.2486 62° Northeast 479 551 37,000  Level Salt Lake Center
04:31PM 43.4017 -108.0669 63° Northeast 479 551 37,000  Level Salt Lake Center
04:32PM 43.4603 -107.9119 62° Northeast 478 550 37,000  Level Salt Lake Center
04:33PM 43.5289 -107.7303 62° Northeast 478 550 37,000  Level Salt Lake Center
04:34PM 43.5867 -107.5744 63° Northeast 479 551 37,000  Level Salt Lake Center
04:35PM 43.6542 -107.3919 63° Northeast 478 550 37,000  Level Salt Lake Center
04:36PM 43.7106 -107.2389 63° Northeast 479 551 37,000  Level Salt Lake Center
04:37PM 43.7772 -107.0542 63° Northeast 481 554 37,000  Level Salt Lake Center
04:38PM 43.8022 -106.8853 78° East 472 543 37,000  Level Salt Lake Center
04:39PM 43.8114 -106.7131 86° East 467 537 37,000  Level Salt Lake Center
04:39PM 43.8175 -106.5967 86° East 470 541 37,000  Level Denver Center
04:41PM 43.8256 -106.4247 86° East 468 539 37,000  Level Denver Center
04:42PM 43.8350 -106.2531 86° East 468 539 37,000  Level Denver Center
04:43PM 43.8461 -106.0522 86° East 468 539 37,000  Level Denver Center
04:44PM 43.8558 -105.8803 85° East 467 537 37,000  Level Denver Center
04:45PM 43.8644 -105.7092 86° East 466 536 37,000  Level Denver Center
04:46PM 43.8753 -105.5086 86° East 466 536 37,000  Level Denver Center
04:47PM 43.8858 -105.3092 86° East 466 536 37,000  Level Denver Center
04:48PM 43.8931 -105.1667 86° East 465 535 37,000  Level Denver Center
04:49PM 43.9033 -104.9400 86° East 463 533 37,000  Level Denver Center
04:50PM 43.9111 -104.7700 86° East 462 532 37,000  Level Denver Center
04:51PM 43.9189 -104.5992 86° East 463 533 37,000  Level Denver Center
04:52PM 43.9267 -104.4008 87° East 462 532 37,000  Level Denver Center
04:53PM 43.9106 -104.2400 98° East 444 511 37,000  Level Denver Center
04:54PM 43.8917 -104.0464 98° East 451 519 37,000  Level Denver Center
04:55PM 43.8756 -103.8825 98° East 451 519 37,000  Level Denver Center
04:56PM 43.8608 -103.6900 96° East 451 519 37,000  Level Denver Center
04:57PM 43.8692 -103.5217 86° East 458 527 37,000  Level Denver Center
04:58PM 43.8997 -103.3297 77° East 458 527 37,000  Level Denver Center
04:59PM 43.9261 -103.1650 77° East 458 527 37,000  Level Denver Center
05:00PM 43.9517 -102.9992 78° East 459 528 37,000  Level Denver Center
05:01PM 43.9833 -102.7900 78° East 467 537 37,000  Level Denver Center
05:02PM 44.0078 -102.6108 79° East 471 542 37,000  Level Denver Center
05:03PM 44.0350 -102.4353 78° East 469 540 37,000  Level Denver Center
05:04PM 44.0606 -102.2561 79° East 472 543 37,000  Level Denver Center
05:05PM 44.0839 -102.0758 80° East 473 544 37,000  Level Denver Center
05:06PM 44.1081 -101.8978 79° East 472 543 37,000  Level Denver Center
05:07PM 44.1306 -101.7206 80° East 467 537 37,000  Level Denver Center
05:08PM 44.1619 -101.5142 78° East 465 535 37,000  Level Minneapolis Center
05:09PM 44.1844 -101.3392 80° East 457 526 37,000  Level Denver Center
05:10PM 44.2097 -101.1697 78° East 457 526 37,000  Level Minneapolis Center
05:12PM 44.2331 -100.9986 79° East 455 524 37,000  Level Minneapolis Center
05:13PM 44.2556 -100.8258 80° East 454 522 37,000  Level Minneapolis Center
05:14PM 44.2836 -100.6169 79° East 457 526 37,000  Level Minneapolis Center
05:15PM 44.3061 -100.4406 80° East 462 532 37,000  Level Minneapolis Center
05:16PM 44.3286 -100.2656 80° East 462 532 37,000  Level Minneapolis Center
05:17PM 44.3514 -100.0883 80° East 465 535 37,000  Level Minneapolis Center
05:18PM 44.3731 -99.9106 80° East 466 536 37,000  Level Minneapolis Center
05:19PM 44.3986 -99.6956 80° East 468 539 37,000  Level Minneapolis Center
05:20PM 44.4211 -99.5156 80° East 472 543 37,000  Level Minneapolis Center
05:21PM 44.4433 -99.3347 80° East 474 545 37,000  Level Minneapolis Center
05:22PM 44.4644 -99.1528 81° East 475 547 37,000  Level Minneapolis Center
05:27PM 44.5760 -98.1590 81° East 481 554 37,000  Level FlightAware
05:28PM 44.5880 -98.0480 81° East 483 556 37,000  Level FlightAware
05:28PM 44.5970 -97.9360 84° East 487 560 37,000  Level FlightAware
05:29PM 44.6030 -97.8370 85° East 486 559 37,000  Level FlightAware
05:29PM 44.6090 -97.7200 86° East 487 560 37,000  Level FlightAware
05:30PM 44.6150 -97.6100 86° East 487 560 37,000  Level FlightAware
05:31PM 44.6210 -97.4980 86° East 487 560 37,000  Level FlightAware
05:31PM 44.6260 -97.3900 86° East 488 562 37,000  Level FlightAware
05:32PM 44.6310 -97.2880 86° East 488 562 37,000  Level FlightAware
05:32PM 44.6370 -97.1660 86° East 489 563 37,000  Level FlightAware
05:33PM 44.6430 -97.0500 86° East 489 563 37,000  Level FlightAware
05:34PM 44.6470 -96.9480 87° East 488 562 37,000  Level FlightAware
05:34PM 44.6520 -96.8380 86° East 489 563 37,000  Level FlightAware
05:35PM 44.6580 -96.7220 86° East 490 564 37,000  Level FlightAware
05:35PM 44.6620 -96.6090 87° East 490 564 37,000  Level FlightAware
05:36PM 44.6670 -96.5010 86° East 490 564 37,000  Level FlightAware
05:37PM 44.6720 -96.3880 86° East 491 565 37,000  Level FlightAware
05:37PM 44.6760 -96.2670 87° East 492 566 37,000  Level FlightAware
05:38PM 44.6810 -96.1650 86° East 492 566 37,000  Level FlightAware
05:38PM 44.6850 -96.0470 87° East 492 566 37,000  Level FlightAware
05:39PM 44.6890 -95.9480 87° East 491 565 37,000 -360 Level FlightAware
05:39PM 44.6930 -95.8230 87° East 485 558 36,600 -960 Descending FlightAware
05:40PM 44.6970 -95.7220 87° East 486 559 35,900 -1,260 Descending FlightAware
05:41PM 44.7010 -95.6110 87° East 487 560 35,200 -780 Descending FlightAware
05:41PM 44.7050 -95.4930 87° East 488 562 35,000 -180 Descending FlightAware
05:42PM 44.7090 -95.3790 87° East 488 562 35,000  Level FlightAware
05:42PM 44.7120 -95.2780 88° East 489 563 35,000  Level FlightAware
05:43PM 44.7150 -95.1640 88° East 490 564 35,000  Level FlightAware
05:44PM 44.7190 -95.0490 87° East 490 564 35,000  Level FlightAware
05:44PM 44.7210 -94.9490 88° East 490 564 35,000  Level FlightAware
05:45PM 44.7250 -94.8380 87° East 489 563 35,000  Level FlightAware
05:45PM 44.7280 -94.7140 88° East 488 562 35,000  Level FlightAware
05:46PM 44.7300 -94.6130 88° East 488 562 35,000  Level FlightAware
05:46PM 44.7330 -94.5000 88° East 488 562 35,000  Level FlightAware
05:47PM 44.7360 -94.3850 88° East 489 563 35,000  Level FlightAware
05:48PM 44.7380 -94.2830 88° East 489 563 35,000  Level FlightAware
05:48PM 44.7410 -94.1700 88° East 490 564 35,000  Level FlightAware
05:49PM 44.7430 -94.0600 88° East 492 566 35,000  Level FlightAware
05:49PM 44.7450 -93.9460 89° East 493 567 35,000  Level FlightAware
05:50PM 44.7480 -93.8310 88° East 494 568 35,000  Level FlightAware
05:51PM 44.7500 -93.7200 89° East 496 571 35,000  Level FlightAware
05:51PM 44.7520 -93.5950 89° East 496 571 35,000  Level FlightAware
05:52PM 44.7540 -93.4680 89° East 497 572 35,000  Level FlightAware
05:53PM 44.7560 -93.3200 89° East 498 573 35,000  Level FlightAware
05:53PM 44.7560 -93.1990 90° East 500 575 35,000  Level FlightAware
05:54PM 44.7540 -93.0970 92° East 501 577 35,000  Level FlightAware
05:55PM 44.7500 -92.9470 92° East 501 577 35,000  Level FlightAware
05:55PM 44.7470 -92.8290 92° East 501 577 35,000  Level FlightAware
05:56PM 44.7430 -92.7250 93° East 501 577 35,000  Level FlightAware
05:56PM 44.7400 -92.5930 92° East 501 577 35,000  Level FlightAware
05:57PM 44.7370 -92.4910 92° East 501 577 35,000  Level FlightAware
05:58PM 44.7290 -92.3140 94° East 499 574 35,000  Level FlightAware
05:58PM 44.7260 -92.2060 92° East 498 573 35,000  Level FlightAware
05:59PM 44.7210 -92.0910 93° East 498 573 35,000  Level FlightAware
06:00PM 44.7170 -91.9750 93° East 498 573 35,000  Level FlightAware
06:00PM 44.7120 -91.8570 93° East 499 574 35,000  Level FlightAware
06:01PM 44.7080 -91.7550 93° East 500 575 35,000  Level FlightAware
06:01PM 44.7040 -91.6380 93° East 500 575 35,000  Level FlightAware
06:02PM 44.6990 -91.5190 93° East 500 575 35,000  Level FlightAware
06:02PM 44.6940 -91.4060 94° East 499 574 35,000  Level FlightAware
06:03PM 44.6890 -91.3020 94° East 499 574 35,000  Level FlightAware
06:04PM 44.6840 -91.1840 93° East 500 575 35,000  Level FlightAware
06:04PM 44.6790 -91.0710 94° East 500 575 35,000  Level FlightAware
06:05PM 44.6730 -90.9540 94° East 501 577 35,000  Level FlightAware
06:05PM 44.6680 -90.8400 93° East 501 577 35,000  Level FlightAware
06:06PM 44.6630 -90.7350 94° East 501 577 35,000  Level FlightAware
06:06PM 44.6570 -90.6210 94° East 502 578 35,000  Level FlightAware
06:07PM 44.6520 -90.5200 94° East 503 579 35,000  Level FlightAware
06:08PM 44.6450 -90.3850 94° East 503 579 35,000  Level FlightAware
06:08PM 44.6390 -90.2740 94° East 504 580 35,000  Level FlightAware
06:09PM 44.6330 -90.1560 94° East 505 581 35,000  Level FlightAware
06:09PM 44.6270 -90.0530 95° East 507 583 35,000  Level FlightAware
06:10PM 44.6200 -89.9270 94° East 508 585 35,000  Level FlightAware
06:11PM 44.6130 -89.8090 95° East 508 585 35,000  Level FlightAware
06:11PM 44.6080 -89.7070 94° East 510 587 35,000  Level FlightAware
06:12PM 44.6010 -89.5880 95° East 510 587 35,000  Level FlightAware
06:12PM 44.5930 -89.4660 95° East 511 588 35,000  Level FlightAware
06:13PM 44.5870 -89.3610 95° East 511 588 35,000  Level FlightAware
06:13PM 44.5790 -89.2430 95° East 511 588 35,000  Level FlightAware
06:14PM 44.5720 -89.1220 95° East 511 588 35,000  Level FlightAware
06:15PM 44.5650 -89.0190 95° East 512 589 35,000  Level FlightAware
06:15PM 44.5580 -88.9020 95° East 513 590 35,000  Level FlightAware
06:16PM 44.5500 -88.7810 95° East 513 590 35,000  Level FlightAware
06:16PM 44.5420 -88.6720 96° East 513 590 35,000  Level FlightAware
06:17PM 44.5340 -88.5480 95° East 513 590 35,000  Level FlightAware
06:18PM 44.5250 -88.4180 96° East 512 589 35,000  Level FlightAware
06:18PM 44.5160 -88.2880 96° East 512 589 35,000  Level FlightAware
06:19PM 44.5080 -88.1750 96° East 511 588 35,000  Level FlightAware
06:19PM 44.5000 -88.0630 96° East 510 587 35,000  Level FlightAware
06:20PM 44.4920 -87.9560 96° East 508 585 35,000  Level FlightAware
06:21PM 44.4780 -87.7730 96° East 506 582 35,000  Level FlightAware
06:22PM 44.4690 -87.6510 96° East 505 581 35,000  Level FlightAware
06:22PM 44.4600 -87.5300 96° East 505 581 35,000  Level FlightAware
06:23PM 44.4510 -87.4250 97° East 505 581 35,000  Level FlightAware
06:23PM 44.4420 -87.3120 96° East 506 582 35,000  Level FlightAware
06:24PM 44.4340 -87.2090 96° East 507 583 35,000  Level FlightAware
06:25PM 44.4260 -87.1030 96° East 507 583 35,000  Level FlightAware
06:25PM 44.4140 -86.9660 97° East 509 586 35,000  Level FlightAware
06:26PM 44.4050 -86.8500 96° East 511 588 35,000  Level FlightAware
06:26PM 44.3970 -86.7560 97° East 512 589 35,000  Level FlightAware
06:27PM 44.3850 -86.6150 97° East 512 589 35,000  Level FlightAware
06:27PM 44.3760 -86.5130 97° East 512 589 35,000  Level FlightAware
06:28PM 44.3650 -86.3860 97° East 513 590 35,000  Level FlightAware
06:29PM 44.3550 -86.2790 97° East 514 592 35,000  Level FlightAware
06:29PM 44.3450 -86.1660 97° East 515 593 35,000  Level FlightAware
06:30PM 44.3340 -86.0430 97° East 517 595 35,000  Level FlightAware
06:30PM 44.3230 -85.9250 97° East 518 596 35,000  Level FlightAware
06:31PM 44.3140 -85.8230 97° East 519 597 35,000  Level FlightAware
06:31PM 44.3030 -85.7020 97° East 520 598 35,000  Level FlightAware
06:32PM 44.2910 -85.5800 98° East 522 601 35,000  Level FlightAware
06:33PM 44.2800 -85.4610 97° East 522 601 35,000  Level FlightAware
06:33PM 44.2690 -85.3520 98° East 523 602 35,000  Level FlightAware
06:34PM 44.2590 -85.2460 97° East 523 602 35,000  Level FlightAware
06:34PM 44.2460 -85.1230 98° East 523 602 35,000  Level FlightAware
06:35PM 44.2340 -84.9990 98° East 522 601 35,000  Level FlightAware
06:36PM 44.2220 -84.8840 98° East 523 602 35,000  Level FlightAware
06:36PM 44.2110 -84.7720 98° East 523 602 35,000  Level FlightAware
06:37PM 44.1980 -84.6430 98° East 523 602 35,000  Level FlightAware
06:37PM 44.1860 -84.5330 99° East 524 603 35,000  Level FlightAware
06:38PM 44.1750 -84.4130 97° East 524 603 35,000  Level FlightAware
06:39PM 44.1730 -84.2940 91° East 519 597 35,000  Level FlightAware
06:39PM 44.1770 -84.1870 87° East 518 596 35,000  Level FlightAware
06:40PM 44.1830 -84.0640 86° East 518 596 35,000  Level FlightAware
06:40PM 44.1880 -83.9460 87° East 517 595 35,000  Level FlightAware
06:41PM 44.1940 -83.8280 86° East 516 594 35,000  Level FlightAware
06:41PM 44.1980 -83.7270 87° East 516 594 35,000  Level FlightAware
06:42PM 44.2030 -83.5960 87° East 515 593 35,000  Level FlightAware
06:43PM 44.2070 -83.4900 87° East 514 592 35,000  Level FlightAware
06:43PM 44.2110 -83.3980 86° East 513 590 35,000  Level FlightAware
06:44PM 44.2150 -83.2840 87° East 512 589 35,000  Level FlightAware
06:44PM 44.2190 -83.1850 87° East 512 589 35,000  Level FlightAware
06:45PM 44.2240 -83.0540 87° East 511 588 35,000  Level FlightAware
06:45PM 44.2280 -82.9290 87° East 511 588 35,000  Level FlightAware
06:46PM 44.2320 -82.8120 87° East 511 588 35,000  Level FlightAware
06:47PM 44.2360 -82.6720 88° East 511 588 35,000  Level FlightAware
06:47PM 44.2400 -82.5720 87° East 512 589 35,000  Level FlightAware
06:48PM 44.2430 -82.4450 88° East 513 590 35,000  Level FlightAware
06:49PM 44.2470 -82.3150 87° East 513 590 35,000  Level FlightAware
06:49PM 44.2340 -82.1880 98° East 514 592 35,000  Level FlightAware
06:50PM 44.2140 -82.0860 105° East 514 592 35,000  Level FlightAware
06:50PM 44.1890 -81.9730 107° East 516 594 35,000  Level FlightAware
06:51PM 44.1640 -81.8560 107° East 517 595 35,000  Level FlightAware
06:52PM 44.1380 -81.7370 107° East 518 596 35,000  Level FlightAware
06:52PM 44.1130 -81.6250 107° East 518 596 35,000  Level FlightAware
06:53PM 44.0900 -81.5170 106° East 519 597 35,000  Level FlightAware
06:53PM 44.0640 -81.4020 107° East 520 598 35,000  Level FlightAware
06:54PM 44.0410 -81.2960 107° East 520 598 35,000  Level FlightAware
06:55PM 44.0110 -81.1610 107° East 522 601 35,000  Level FlightAware
06:55PM 43.9870 -81.0510 107° East 523 602 35,000  Level FlightAware
06:56PM 43.9610 -80.9380 108° East 525 604 35,000  Level FlightAware
06:56PM 43.9320 -80.8100 107° East 527 606 35,000  Level FlightAware
06:57PM 43.9120 -80.7180 107° East 528 608 35,000  Level FlightAware
06:57PM 43.8860 -80.6060 108° East 528 608 35,000  Level FlightAware
06:58PM 43.8570 -80.4780 107° East 528 608 35,000  Level FlightAware
06:59PM 43.8330 -80.3750 108° East 529 609 35,000  Level FlightAware
06:59PM 43.8010 -80.2370 108° East 529 609 35,000  Level FlightAware
07:00PM 43.7770 -80.1330 108° East 528 608 35,000  Level FlightAware
07:01PM 43.7470 -80.0060 108° East 527 606 35,000  Level FlightAware
07:01PM 43.7230 -79.9040 108° East 527 606 35,000  Level FlightAware
07:02PM 43.6960 -79.7880 108° East 525 604 35,000  Level FlightAware
07:02PM 43.6700 -79.6750 108° East 529 609 35,000  Level FlightAware
07:03PM 43.6610 -79.5700 97° East 538 619 35,000  Level FlightAware
07:03PM 43.6650 -79.4420 87° East 539 620 35,000  Level FlightAware
07:04PM 43.6700 -79.3090 87° East 539 620 35,000  Level FlightAware
07:05PM 43.6740 -79.1830 87° East 538 619 35,000  Level FlightAware
07:05PM 43.6780 -79.0770 87° East 538 619 35,000  Level FlightAware
07:06PM 43.6820 -78.9470 88° East 538 619 35,000  Level FlightAware
07:06PM 43.6860 -78.8220 87° East 538 619 35,000  Level FlightAware
07:07PM 43.6900 -78.7020 87° East 539 620 35,000  Level FlightAware
07:08PM 43.6930 -78.5950 88° East 540 621 35,000  Level FlightAware
07:08PM 43.6970 -78.4690 87° East 541 623 35,000  Level FlightAware
07:09PM 43.7000 -78.3460 88° East 543 625 35,000  Level FlightAware
07:09PM 43.7030 -78.2300 88° East 544 626 35,000  Level FlightAware
07:10PM 43.7060 -78.1050 88° East 545 627 35,000  Level FlightAware
07:11PM 43.7090 -77.9730 88° East 545 627 35,000  Level FlightAware
07:11PM 43.7120 -77.8620 88° East 547 629 35,000  Level FlightAware
07:12PM 43.7140 -77.7470 89° East 547 629 35,000  Level FlightAware
07:12PM 43.7170 -77.6340 88° East 548 631 35,000  Level FlightAware
07:13PM 43.7190 -77.4940 89° East 548 631 35,000  Level FlightAware
07:13PM 43.7220 -77.3690 88° East 547 629 35,000  Level FlightAware
07:14PM 43.7240 -77.2410 89° East 547 629 35,000  Level FlightAware
07:15PM 43.7260 -77.1290 89° East 547 629 35,000  Level FlightAware
07:15PM 43.7280 -77.0090 89° East 546 628 35,000  Level FlightAware
07:16PM 43.7290 -76.8890 89° East 545 627 35,000 -120 Level FlightAware
07:16PM 43.7210 -76.7570 95° East 527 606 34,900 -420 Descending FlightAware
07:17PM 43.7030 -76.6970 113° Southeast 509 586 34,600 -1,440 Descending FlightAware
07:17PM 43.6490 -76.6090 130° Southeast 492 566 33,600 -1,260 Descending FlightAware
07:18PM 43.5990 -76.5420 136° Southeast 489 563 33,200 -540 Descending FlightAware
07:18PM 43.5370 -76.4600 136° Southeast 487 560 33,000 -180 Descending FlightAware
07:19PM 43.4760 -76.3810 137° Southeast 490 564 33,000  Level FlightAware
07:20PM 43.4240 -76.3130 136° Southeast 490 564 33,000  Level FlightAware
07:20PM 43.3660 -76.2370 136° Southeast 493 567 33,000  Level FlightAware
07:21PM 43.3070 -76.1590 136° Southeast 493 567 33,000  Level FlightAware
07:21PM 43.2530 -76.0890 137° Southeast 495 570 33,000  Level FlightAware
07:22PM 43.1930 -76.0110 137° Southeast 495 570 33,000  Level FlightAware
07:23PM 43.1310 -75.9300 136° Southeast 496 571 33,000  Level FlightAware
07:23PM 43.0780 -75.8610 136° Southeast 495 570 33,000  Level FlightAware
07:24PM 43.0200 -75.7870 137° Southeast 496 571 33,000  Level FlightAware
07:24PM 42.9560 -75.7050 137° Southeast 498 573 33,000  Level FlightAware
07:25PM 42.9060 -75.6410 137° Southeast 500 575 33,000  Level FlightAware
07:25PM 42.8390 -75.5540 136° Southeast 500 575 33,000  Level FlightAware
07:26PM 42.7790 -75.4770 137° Southeast 502 578 33,000 -300 Level FlightAware
07:27PM 42.7260 -75.4110 138° Southeast 500 575 32,700 -900 Descending FlightAware
07:27PM 42.6640 -75.3320 137° Southeast 503 579 32,000 -1,200 Descending FlightAware
07:28PM 42.6020 -75.2530 137° Southeast 505 581 31,300 -1,020 Descending FlightAware
07:28PM 42.5420 -75.1770 137° Southeast 503 579 30,800 -840 Descending FlightAware
07:29PM 42.4890 -75.1100 137° Southeast 496 571 30,400 -900 Descending FlightAware
07:29PM 42.4270 -75.0330 137° Southeast 495 570 29,800 -840 Descending FlightAware
07:30PM 42.3890 -74.9850 137° Southeast 285 328 29,500 -480 Descending FlightAware
07:31PM 42.3250 -74.9050 137° Southeast 492 566 29,300 -1,140 Descending FlightAware
07:31PM 42.2470 -74.8080 137° Southeast 490 564 28,000 -1,020 Descending FlightAware
07:32PM 42.1850 -74.7310 137° Southeast 502 578 28,000  Level FlightAware
07:33PM 42.1290 -74.6600 137° Southeast 502 578 28,000  Level FlightAware
07:33PM 42.0480 -74.5610 138° Southeast 504 580 28,000  Level FlightAware
07:34PM 41.9520 -74.4680 144° Southeast 491 565 28,000  Level FlightAware
07:35PM 41.8650 -74.4090 153° Southeast 480 552 28,000  Level FlightAware ADS-B
07:36PM 41.7800 -74.3485 152° Southeast 479 551 28,000 -1,020 Level FlightAware ADS-B
07:36PM 41.6685 -74.2684 152° Southeast 483 556 26,300 -2,160 Descending FlightAware ADS-B
07:37PM 41.6081 -74.2243 151° Southeast 475 547 24,900 -2,580 Descending FlightAware ADS-B
07:38PM 41.5426 -74.1766 151° Southeast 466 536 23,500 -2,520 Descending FlightAware ADS-B
07:38PM 41.4600 -74.1169 152° Southeast 453 521 21,600 -2,640 Descending FlightAware ADS-B
07:39PM 41.4129 -74.0916 158° South 432 497 20,500 -1,800 Descending FlightAware ADS-B
07:39PM 41.3548 -74.0783 170° South 421 484 20,000 -540 Descending FlightAware ADS-B
07:40PM 41.2936 -74.0648 171° South 420 483 20,000 -300 Level FlightAware ADS-B
07:40PM 41.2337 -74.0522 171° South 407 468 19,700 -900 Descending FlightAware ADS-B
07:41PM 41.1783 -74.0405 171° South 387 445 19,100 -780 Descending FlightAware ADS-B
07:41PM 41.1358 -74.0319 171° South 342 394 19,000 -240 Descending FlightAware ADS-B
07:41PM 41.1288 -74.0305 171° South 340 391 19,000  Level FlightAware ADS-B
07:42PM 41.0981 -74.0244 171° South 332 382 19,000  Level FlightAware ADS-B
07:42PM 41.0900 -74.0233 174° South 331 381 19,000  Level FlightAware ADS-B
07:42PM 41.0820 -74.0229 178° South 328 377 19,000  Level FlightAware ADS-B
07:42PM 41.0716 -74.0236 183° South 325 374 19,000  Level FlightAware ADS-B
07:42PM 41.0703 -74.0237 183° South 324 373 19,000  Level FlightAware ADS-B
07:42PM 41.0577 -74.0261 188° South 323 372 19,000  Level FlightAware ADS-B
07:42PM 41.0472 -74.0295 194° South 319 367 19,000  Level FlightAware ADS-B
07:42PM 41.0438 -74.0309 197° South 317 365 19,000  Level FlightAware ADS-B
07:42PM 41.0312 -74.0372 201° Southwest 310 357 19,000  Level FlightAware ADS-B
07:42PM 41.0263 -74.0402 205° Southwest 308 354 19,000  Level FlightAware ADS-B
07:43PM 41.0179 -74.0463 209° Southwest 305 351 19,000  Level FlightAware ADS-B
07:43PM 41.0126 -74.0506 211° Southwest 303 349 19,000 -720 Level FlightAware ADS-B
07:43PM 40.9754 -74.0828 213° Southwest 299 344 18,600 -1,140 Descending FlightAware ADS-B
07:44PM 40.9479 -74.1050 211° Southwest 302 348 18,000 -1,500 Descending FlightAware ADS-B
07:44PM 40.9413 -74.1084 201° Southwest 305 351 17,900 -1,680 Descending FlightAware ADS-B
07:44PM 40.9225 -74.1129 190° South 299 344 17,500 -1,740 Descending FlightAware ADS-B
07:44PM 40.9210 -74.1129 180° South 314 361 17,500 -2,040 Level FlightAware ADS-B
07:44PM 40.9181 -74.1129 180° South 317 365 17,400 -1,500 Descending FlightAware ADS-B
07:44PM 40.9155 -74.1126 175° South 319 367 17,400 -1,020 Level FlightAware ADS-B
07:44PM 40.9103 -74.1118 173° South 321 369 17,300 -1,740 Descending FlightAware ADS-B
07:44PM 40.9061 -74.1107 169° South 322 371 17,200 -2,040 Descending FlightAware ADS-B
07:44PM 40.8970 -74.1075 165° South 324 373 17,000 -1,740 Descending FlightAware ADS-B
07:44PM 40.8963 -74.1072 162° South 324 373 17,000 -1,380 Level FlightAware ADS-B
07:45PM 40.8524 -74.0863 160° South 324 373 16,300 -840 Descending FlightAware ADS-B
07:45PM 40.8088 -74.0652 160° South 326 375 16,200 -240 Descending FlightAware ADS-B
07:45PM 40.8077 -74.0646 158° South 326 375 16,200 -780 Level FlightAware ADS-B
07:46PM 40.7654 -74.0443 160° South 324 373 15,800 -960 Descending FlightAware ADS-B
07:46PM 40.7626 -74.0430 161° South 324 373 15,700 -1,740 Descending FlightAware ADS-B
07:46PM 40.7200 -74.0226 160° South 322 371 14,900 -1,560 Descending FlightAware ADS-B
07:47PM 40.6810 -74.0047 161° South 320 368 14,200 -1,560 Descending FlightAware ADS-B
07:47PM 40.6545 -73.9929 161° South 317 365 13,700 -1,380 Descending FlightAware ADS-B
07:47PM 40.6444 -73.9872 157° South 318 366 13,600 -1,440 Descending FlightAware ADS-B
07:47PM 40.6371 -73.9826 154° Southeast 317 365 13,400 -780 Descending FlightAware ADS-B
07:48PM 40.6030 -73.9595 153° Southeast 315 362 13,200 -240 Descending FlightAware ADS-B
07:48PM 40.5614 -73.9305 152° Southeast 317 365 13,200 -420 Level FlightAware ADS-B
07:49PM 40.5229 -73.9033 152° Southeast 314 361 12,800 -1,200 Descending FlightAware ADS-B
07:49PM 40.4843 -73.8764 152° Southeast 314 361 12,000 -1,500 Descending FlightAware ADS-B
07:50PM 40.4452 -73.8500 153° Southeast 312 359 11,300 -1,500 Descending FlightAware ADS-B
07:50PM 40.4363 -73.8439 152° Southeast 311 358 11,100 -1,500 Descending FlightAware ADS-B
07:50PM 40.4308 -73.8395 149° Southeast 312 359 11,000 -1,140 Descending FlightAware ADS-B
07:50PM 40.4237 -73.8324 143° Southeast 315 362 10,900 -1,140 Descending FlightAware ADS-B
07:50PM 40.4176 -73.8250 137° Southeast 316 364 10,800 -1,380 Descending FlightAware ADS-B
07:51PM 40.3876 -73.7823 133° Southeast 314 361 10,100 -1,380 Descending FlightAware ADS-B
07:51PM 40.3726 -73.7559 127° Southeast 318 366 9,700 -1,440 Descending FlightAware ADS-B
07:51PM 40.3684 -73.7417 111° Southeast 317 365 9,500 -1,320 Descending FlightAware ADS-B
07:51PM 40.3658 -73.7300 106° East 317 365 9,400 -1,200 Descending FlightAware ADS-B
07:51PM 40.3589 -73.6964 105° East 316 364 9,000 -1,440 Descending FlightAware ADS-B
07:52PM 40.3563 -73.6817 103° East 314 361 8,800 -1,140 Descending FlightAware ADS-B
07:52PM 40.3556 -73.6746 97° East 314 361 8,800 -720 Level FlightAware ADS-B
07:52PM 40.3555 -73.6658 91° East 313 360 8,700 -1,380 Descending FlightAware ADS-B
07:52PM 40.3561 -73.6586 84° East 311 358 8,600 -1,140 Descending FlightAware ADS-B
07:52PM 40.3587 -73.6455 75° East 308 354 8,500 -1,140 Descending FlightAware ADS-B
07:52PM 40.3705 -73.6219 57° Northeast 302 348 8,200 -1,320 Descending FlightAware ADS-B
07:52PM 40.3739 -73.6179 42° Northeast 299 344 8,100 -1,020 Descending FlightAware ADS-B
07:52PM 40.3831 -73.6095 35° Northeast 295 339 8,000 -1,260 Descending FlightAware ADS-B
07:53PM 40.4014 -73.5952 31° Northeast 291 335 7,600 -1,380 Descending FlightAware ADS-B
07:53PM 40.4198 -73.5811 30° Northeast 291 335 7,300 -600 Descending FlightAware ADS-B
07:53PM 40.4512 -73.5569 30° Northeast 289 333 7,200 -180 Descending FlightAware ADS-B
07:54PM 40.4747 -73.5389 30° Northeast 288 331 7,200  Level FlightAware ADS-B
07:54PM 40.4923 -73.5252 31° Northeast 287 330 7,200 -600 Level FlightAware ADS-B
07:55PM 40.5489 -73.4811 31° Northeast 287 330 6,600 -900 Descending FlightAware ADS-B
07:55PM 40.5770 -73.4634 26° Northeast 279 321 6,100 -1,320 Descending FlightAware ADS-B
07:56PM 40.6170 -73.4430 21° North 277 319 5,400 -1,080 Descending FlightAware
07:56PM 40.6350 -73.4370 14° North 269 310 5,200 -300 Descending FlightAware
07:56PM 40.6650 -73.4410 354° North 267 307 5,200  Level FlightAware
07:57PM 40.6930 -73.4470 351° North 266 306 5,200  Level FlightAware
07:57PM 40.7220 -73.4540 350° North 265 305 5,200 -180 Level FlightAware
07:58PM 40.7480 -73.4600 350° North 263 303 5,100 -600 Descending FlightAware
07:58PM 40.7620 -73.4640 348° North 260 299 4,900 -900 Descending FlightAware
07:58PM 40.7700 -73.4690 335° Northwest 257 296 4,800 -900 Descending FlightAware
07:58PM 40.7760 -73.4760 319° Northwest 252 290 4,700 -1,140 Descending FlightAware
07:58PM 40.7910 -73.5000 310° West 247 284 4,300 -900 Descending FlightAware
07:59PM 40.8050 -73.5250 307° West 231 266 4,100 -660 Descending FlightAware
07:59PM 40.8160 -73.5450 306° West 215 247 3,900 -900 Descending FlightAware
07:59PM 40.8260 -73.5620 308° West 206 237 3,600 -780 Descending FlightAware
08:00PM 40.8380 -73.5810 310° West 190 219 3,400 -600 Descending FlightAware
08:00PM 40.8410 -73.5900 294° West 184 212 3,300 -1,020 Descending FlightAware
08:00PM 40.8420 -73.5960 282° West 183 211 3,200 -240 Descending FlightAware
08:00PM 40.8340 -73.6190 245° Southwest 182 209 3,200  Level FlightAware
08:01PM 40.8250 -73.6330 230° Southwest 181 208 3,200  Level FlightAware
08:01PM 40.8100 -73.6490 219° Southwest 182 209 3,200  Level FlightAware
08:01PM 40.7980 -73.6590 212° Southwest 185 213 3,200  Level FlightAware
08:01PM 40.7830 -73.6700 209° Southwest 186 214 3,200 -300 Level FlightAware
08:02PM 40.7680 -73.6810 209° Southwest 187 215 3,000 -840 Descending FlightAware
08:02PM 40.7500 -73.6930 207° Southwest 188 216 2,600 -1,080 Descending FlightAware
08:03PM 40.7360 -73.7030 208° Southwest 188 216 2,300 -1,080 Descending FlightAware
08:03PM 40.7190 -73.7150 208° Southwest 178 205 1,900 -1,020 Descending FlightAware
08:03PM 40.7050 -73.7250 208° Southwest 162 186 1,600 -780 Descending FlightAware
08:04PM 40.6940 -73.7330 209° Southwest 147 169 1,400 -840 Descending FlightAware
08:04PM 40.6830 -73.7400 206° Southwest 131 151 1,100 -840 Descending FlightAware
08:04PM 40.6720 -73.7470 206° Southwest 124 143 900 -540 Descending FlightAware
08:04PM 40.6650 -73.7520 208° Southwest 125 144 800 -660 Descending FlightAware
08:05PM 40.6540 -73.7610 212° Southwest 127 146 500 -780 Descending FlightAware
08:05PM 40.6430 -73.7690 209° Southwest 129 148 300 -600 Descending FlightAware
08:05PM 40.6340 -73.7760 211° Southwest 115 132 -960 Descending FlightAware